createdAt,value
2019-01-22T00:00:44.026Z,70.40
2019-01-22T00:03:16.992Z,69.70
2019-01-22T00:05:49.622Z,69.00
2019-01-22T00:08:22.795Z,70.20
2019-01-22T00:10:55.715Z,72.00
2019-01-22T00:13:30.208Z,74.70
2019-01-22T00:16:02.785Z,73.30
2019-01-22T00:18:35.690Z,68.50
2019-01-22T00:21:08.633Z,68.60
2019-01-22T00:23:43.944Z,68.90
2019-01-22T00:26:17.037Z,69.50
2019-01-22T00:28:49.689Z,68.50
2019-01-22T00:31:23.993Z,68.60
2019-01-22T00:33:56.548Z,69.40
2019-01-22T00:36:29.095Z,68.50
2019-01-22T00:39:01.714Z,68.70
2019-01-22T00:41:34.266Z,68.40
2019-01-22T00:44:06.802Z,68.30
2019-01-22T00:46:39.351Z,67.80
2019-01-22T00:49:12.187Z,68.20
2019-01-22T00:51:44.733Z,68.40
2019-01-22T00:54:17.285Z,68.00
2019-01-22T00:56:49.838Z,67.60
2019-01-22T00:59:22.034Z,67.60
2019-01-22T01:01:54.590Z,67.60
2019-01-22T01:04:28.851Z,67.40
2019-01-22T01:07:02.411Z,67.30
2019-01-22T01:09:35.578Z,67.80
2019-01-22T01:12:08.157Z,68.10
2019-01-22T01:14:40.969Z,67.40
2019-01-22T01:17:13.554Z,67.20
2019-01-22T01:19:46.037Z,67.40
2019-01-22T01:22:18.618Z,67.30
2019-01-22T01:24:51.194Z,67.60
2019-01-22T01:27:23.762Z,67.20
2019-01-22T01:29:56.223Z,67.40
2019-01-22T01:32:29.697Z,67.20
2019-01-22T01:35:02.257Z,67.10
2019-01-22T01:37:34.909Z,67.40
2019-01-22T01:40:08.711Z,68.50
2019-01-22T01:42:41.250Z,66.50
2019-01-22T01:45:13.801Z,66.60
2019-01-22T01:47:46.777Z,66.80
2019-01-22T01:50:19.827Z,66.20
2019-01-22T01:52:52.494Z,66.60
2019-01-22T01:55:24.968Z,67.10
2019-01-22T01:57:57.692Z,66.70
2019-01-22T02:00:30.239Z,66.50
2019-01-22T02:03:03.081Z,66.60
2019-01-22T02:05:35.579Z,66.60
2019-01-22T02:08:08.083Z,66.60
2019-01-22T02:10:40.581Z,66.80
2019-01-22T02:13:13.574Z,66.60
2019-01-22T02:15:54.009Z,66.30
2019-01-22T02:18:31.435Z,66.30
2019-01-22T02:21:08.630Z,66.60
2019-01-22T02:24:05.647Z,66.30
2019-01-22T02:26:50.272Z,66.40
2019-01-22T02:29:24.893Z,66.40
2019-01-22T02:32:11.452Z,66.40
2019-01-22T02:34:54.637Z,66.50
2019-01-22T02:40:05.747Z,97.10
2019-01-22T02:42:52.247Z,98.30
2019-01-22T02:48:27.179Z,99.90
2019-01-22T02:51:04.796Z,95.20
2019-01-22T02:56:25.917Z,74.60
2019-01-22T02:59:15.425Z,66.80
2019-01-22T03:02:17.356Z,79.70
2019-01-22T03:04:56.831Z,79.20
2019-01-22T03:07:58.455Z,79.40
2019-01-22T03:13:22.240Z,79.50
2019-01-22T03:16:29.697Z,79.60
2019-01-22T03:19:13.116Z,79.60
2019-01-22T03:22:04.018Z,78.80
2019-01-22T03:27:41.371Z,73.00
2019-01-22T03:33:13.252Z,76.80
2019-01-22T03:46:49.257Z,75.60
2019-01-22T03:49:24.718Z,76.30
2019-01-22T03:52:05.505Z,75.10
2019-01-22T03:57:32.571Z,75.60
2019-01-22T04:05:17.617Z,70.10
2019-01-22T04:10:25.683Z,74.40
2019-01-22T04:44:36.086Z,70.00
2019-01-22T04:52:42.794Z,72.60
2019-01-22T05:05:31.390Z,71.50
2019-01-22T05:10:45.927Z,66.70
2019-01-22T05:18:53.420Z,67.40
2019-01-22T05:34:45.684Z,65.70
2019-01-22T06:04:25.740Z,56.10
2019-01-22T06:31:49.458Z,57.20
2019-01-22T06:36:57.207Z,57.30
2019-01-22T06:39:34.986Z,57.60
2019-01-22T06:44:51.700Z,55.30
2019-01-22T06:47:29.650Z,54.60
2019-01-22T06:52:43.322Z,54.50
2019-01-22T06:55:22.271Z,55.30
2019-01-22T07:00:33.139Z,54.70
2019-01-22T07:14:06.605Z,59.10
2019-01-22T07:17:03.680Z,56.60
2019-01-22T07:19:50.441Z,57.00
2019-01-22T07:22:36.965Z,47.30
2019-01-22T07:27:59.049Z,51.70
2019-01-22T07:30:33.738Z,51.40
2019-01-22T07:36:16.360Z,50.00
2019-01-22T07:52:28.559Z,51.80
2019-01-22T07:57:44.628Z,53.90
2019-01-22T08:03:00.670Z,52.30
2019-01-22T08:13:34.748Z,58.60
2019-01-22T08:39:39.009Z,64.30
2019-01-22T08:42:29.704Z,65.10
2019-01-22T08:45:09.748Z,55.40
2019-01-22T08:50:45.387Z,55.80
2019-01-22T08:53:28.743Z,57.30
2019-01-22T08:56:31.921Z,57.30
2019-01-22T08:59:25.978Z,70.30
2019-01-22T09:02:00.151Z,70.30
2019-01-22T09:04:53.074Z,73.00
2019-01-22T09:07:33.254Z,72.80
2019-01-22T09:10:28.924Z,71.70
2019-01-22T09:13:16.140Z,72.00
2019-01-22T09:16:13.842Z,74.30
2019-01-22T09:18:57.997Z,69.60
2019-01-22T09:30:08.045Z,66.50
2019-01-22T09:32:59.809Z,69.50
2019-01-22T10:06:12.023Z,69.80
2019-01-22T10:18:53.183Z,70.40
2019-01-22T10:39:12.105Z,72.60
2019-01-22T10:49:21.532Z,72.60
2019-01-22T10:57:00.518Z,70.60
2019-01-22T10:59:34.729Z,71.70
2019-01-22T11:17:17.981Z,76.70
2019-01-22T11:32:33.629Z,71.60
2019-01-22T11:37:39.667Z,75.10
2019-01-22T11:40:17.384Z,72.10
2019-01-22T11:50:30.620Z,73.80
2019-01-22T11:53:03.773Z,77.90
2019-01-22T11:58:09.307Z,73.10
2019-01-22T12:28:39.553Z,79.10
2019-01-22T12:33:44.807Z,78.70
2019-01-22T12:38:50.068Z,79.70
2019-01-22T12:41:24.316Z,77.50
2019-01-22T12:46:29.597Z,75.70
2019-01-22T12:59:14.547Z,73.10
2019-01-22T13:06:51.571Z,80.30
2019-01-22T13:11:56.067Z,75.70
2019-01-22T13:22:04.295Z,79.40
2019-01-22T13:27:09.031Z,78.60
2019-01-22T13:29:42.031Z,80.50
2019-01-22T13:34:46.356Z,73.30
2019-01-22T13:37:19.431Z,78.00
2019-01-22T13:49:59.299Z,75.90
2019-01-22T13:55:03.418Z,77.90
2019-01-22T14:25:32.168Z,81.50
2019-01-22T14:33:12.493Z,81.40
2019-01-22T14:38:18.289Z,79.00
2019-01-22T14:40:50.816Z,81.60
2019-01-22T14:43:23.503Z,82.60
2019-01-22T14:48:27.815Z,83.70
2019-01-22T14:51:00.405Z,84.10
2019-01-22T14:53:33.118Z,70.50
2019-01-22T14:56:05.756Z,70.70
2019-01-22T14:58:38.302Z,70.60
2019-01-22T15:01:10.789Z,70.60
2019-01-22T15:03:43.956Z,89.70
2019-01-22T15:06:17.170Z,70.60
2019-01-22T15:08:49.804Z,71.30
2019-01-22T15:11:23.385Z,70.70
2019-01-22T15:13:55.906Z,70.70
2019-01-22T15:16:29.044Z,70.70
2019-01-22T15:19:01.964Z,70.90
2019-01-22T15:21:34.523Z,70.80
2019-01-22T15:24:07.098Z,70.90
2019-01-22T15:26:39.747Z,70.90
2019-01-22T15:29:12.351Z,71.10
2019-01-22T15:31:44.995Z,71.20
2019-01-22T15:34:17.622Z,71.30
2019-01-22T15:36:50.220Z,71.40
2019-01-22T15:39:22.811Z,71.40
2019-01-22T15:41:55.279Z,71.40
2019-01-22T15:44:27.807Z,71.40
2019-01-22T15:47:00.281Z,71.30
2019-01-22T15:49:32.906Z,71.20
2019-01-22T15:52:05.414Z,71.30
2019-01-22T15:54:37.976Z,71.30
2019-01-22T15:57:10.529Z,71.40
2019-01-22T15:59:43.067Z,71.50
2019-01-22T16:02:15.637Z,71.50
2019-01-22T16:04:48.245Z,71.50
2019-01-22T16:07:20.717Z,71.60
2019-01-22T16:09:53.266Z,71.60
2019-01-22T16:12:25.811Z,71.70
2019-01-22T16:14:58.376Z,71.70
2019-01-22T16:17:30.879Z,71.80
2019-01-22T16:20:03.775Z,71.80
2019-01-22T16:22:36.374Z,71.90
2019-01-22T16:25:10.636Z,71.90
2019-01-22T16:27:43.187Z,71.90
2019-01-22T16:30:17.582Z,72.00
2019-01-22T16:32:50.147Z,72.10
2019-01-22T16:35:23.704Z,73.90
2019-01-22T16:37:56.253Z,72.70
2019-01-22T16:40:28.787Z,72.60
2019-01-22T16:43:01.275Z,72.20
2019-01-22T16:45:37.342Z,72.80
2019-01-22T16:48:09.902Z,72.40
2019-01-22T16:50:42.442Z,72.50
2019-01-22T16:53:14.914Z,72.60
2019-01-22T16:55:47.607Z,72.70
2019-01-22T16:58:20.161Z,72.80
2019-01-22T17:00:52.774Z,72.80
2019-01-22T17:03:25.637Z,74.20
2019-01-22T17:05:58.252Z,72.80
2019-01-22T17:08:30.787Z,72.80
2019-01-22T17:11:03.496Z,72.70
2019-01-22T17:13:36.059Z,72.70
2019-01-22T17:16:08.609Z,72.70
2019-01-22T17:18:42.324Z,72.80
2019-01-22T17:21:15.229Z,72.60
2019-01-22T17:23:47.843Z,72.70
2019-01-22T17:26:20.474Z,72.70
2019-01-22T17:28:53.024Z,72.80
2019-01-22T17:31:26.734Z,72.70
2019-01-22T17:34:00.143Z,72.60
2019-01-22T17:36:32.734Z,72.60
2019-01-22T17:39:05.351Z,72.60
2019-01-22T17:41:37.911Z,72.70
2019-01-22T17:44:11.115Z,72.80
2019-01-22T17:46:43.667Z,72.90
2019-01-22T17:49:19.279Z,73.10
2019-01-22T17:51:51.964Z,73.20
2019-01-22T17:54:24.475Z,73.10
2019-01-22T17:56:57.106Z,73.10
2019-01-22T17:59:29.692Z,73.00
2019-01-22T18:04:32.685Z,72.10
2019-01-22T18:07:05.201Z,72.80
2019-01-22T18:09:37.684Z,72.70
2019-01-22T18:12:10.126Z,72.70
2019-01-22T18:14:42.837Z,72.70
2019-01-22T18:17:15.297Z,72.80
2019-01-22T18:19:47.910Z,72.70
2019-01-22T18:22:20.451Z,91.90
2019-01-22T18:24:53.093Z,72.60
2019-01-22T18:27:25.560Z,72.60
2019-01-22T18:29:58.105Z,72.60
2019-01-22T18:32:30.620Z,72.50
2019-01-22T18:35:03.326Z,72.60
2019-01-22T18:37:35.816Z,72.60
2019-01-22T18:40:10.775Z,72.60
2019-01-22T18:42:43.296Z,72.40
2019-01-22T18:45:17.808Z,72.60
2019-01-22T18:47:50.302Z,72.30
2019-01-22T18:50:26.967Z,72.30
2019-01-22T18:52:59.509Z,71.00
2019-01-22T18:55:32.157Z,72.00
2019-01-22T18:58:04.683Z,71.70
2019-01-22T19:00:37.278Z,72.10
2019-01-22T19:03:09.813Z,71.90
2019-01-22T19:05:42.998Z,72.50
2019-01-22T19:08:15.543Z,71.90
2019-01-22T19:10:48.218Z,72.00
2019-01-22T19:13:20.722Z,71.90
2019-01-22T19:15:53.317Z,71.90
2019-01-22T19:18:25.787Z,71.80
2019-01-22T19:20:58.376Z,71.80
2019-01-22T19:23:30.792Z,71.60
2019-01-22T19:26:03.324Z,71.60
2019-01-22T19:28:35.830Z,71.50
2019-01-22T19:31:08.484Z,71.60
2019-01-22T19:33:40.982Z,71.60
2019-01-22T19:36:13.567Z,71.50
2019-01-22T19:38:47.393Z,71.50
2019-01-22T19:41:19.911Z,71.60
2019-01-22T19:43:52.388Z,71.80
2019-01-22T19:46:24.949Z,72.00
2019-01-22T19:48:57.473Z,71.90
2019-01-22T19:51:29.974Z,72.10
2019-01-22T19:54:02.513Z,71.90
2019-01-22T19:56:34.992Z,91.00
2019-01-22T19:59:07.506Z,71.70
2019-01-22T20:01:40.024Z,91.00
2019-01-22T20:04:12.587Z,71.60
2019-01-22T20:06:45.103Z,71.40
2019-01-22T20:09:17.642Z,71.30
2019-01-22T20:11:50.128Z,71.20
2019-01-22T20:14:22.656Z,71.10
2019-01-22T20:16:56.577Z,70.90
2019-01-22T20:19:29.107Z,70.80
2019-01-22T20:22:01.643Z,70.70
2019-01-22T20:24:35.559Z,70.70
2019-01-22T20:27:08.094Z,70.60
2019-01-22T20:29:41.886Z,70.50
2019-01-22T20:32:14.391Z,70.50
2019-01-22T20:34:46.945Z,70.60
2019-01-22T20:37:19.549Z,70.60
2019-01-22T20:40:00.804Z,70.60
2019-01-22T20:42:33.332Z,70.60
2019-01-22T20:45:05.866Z,70.60
2019-01-22T20:47:38.412Z,70.50
2019-01-22T20:50:19.126Z,70.30
2019-01-22T20:52:46.906Z,70.00
2019-01-22T20:55:26.193Z,70.30
2019-01-22T20:57:58.738Z,70.40
2019-01-22T21:00:31.331Z,70.80
2019-01-22T21:03:03.824Z,70.70
2019-01-22T21:05:36.345Z,71.10
2019-01-22T21:08:10.488Z,71.00
2019-01-22T21:10:43.026Z,71.30
2019-01-22T21:13:15.662Z,71.60
2019-01-22T21:15:48.179Z,71.90
2019-01-22T21:18:20.761Z,72.40
2019-01-22T21:20:53.233Z,72.60
2019-01-22T21:23:25.812Z,73.10
2019-01-22T21:25:58.308Z,73.70
2019-01-22T21:28:30.800Z,73.60
2019-01-22T21:31:03.435Z,73.80
2019-01-22T21:33:35.989Z,73.90
2019-01-22T21:36:08.601Z,73.90
2019-01-22T21:38:41.118Z,74.20
2019-01-22T21:41:15.065Z,74.40
2019-01-22T21:43:47.683Z,74.70
2019-01-22T21:46:20.174Z,74.80
2019-01-22T21:48:52.697Z,74.90
2019-01-22T21:51:25.194Z,75.20
2019-01-22T21:53:58.304Z,75.10
2019-01-22T21:56:30.854Z,75.20
2019-01-22T21:59:03.605Z,90.00
2019-01-22T22:01:36.111Z,75.20
2019-01-22T22:04:08.645Z,75.50
2019-01-22T22:06:41.193Z,76.00
2019-01-22T22:09:13.712Z,76.30
2019-01-22T22:11:46.201Z,76.00
2019-01-22T22:14:18.763Z,75.90
2019-01-22T22:16:51.304Z,75.90
2019-01-22T22:19:23.949Z,75.80
2019-01-22T22:21:56.407Z,75.80
2019-01-22T22:24:28.980Z,76.10
2019-01-22T22:27:01.405Z,75.70
2019-01-22T22:29:34.011Z,75.50
2019-01-22T22:32:06.578Z,75.90
2019-01-22T22:34:39.129Z,75.60
2019-01-22T22:37:11.562Z,75.50
2019-01-22T23:01:35.446Z,74.40
2019-01-22T23:04:07.986Z,74.10
2019-01-22T23:06:40.558Z,73.90
2019-01-22T23:09:13.220Z,73.60
2019-01-22T23:11:45.729Z,73.50
2019-01-22T23:14:18.329Z,73.50
2019-01-22T23:16:50.888Z,73.40
2019-01-22T23:19:23.432Z,73.30
2019-01-22T23:21:55.958Z,73.30
2019-01-22T23:24:28.481Z,73.20
2019-01-22T23:27:02.373Z,73.10
2019-01-22T23:29:34.871Z,72.90
2019-01-22T23:32:07.517Z,72.50
2019-01-22T23:34:40.019Z,72.00
2019-01-22T23:37:12.574Z,71.60
2019-01-22T23:39:45.107Z,71.10
2019-01-22T23:42:17.660Z,70.30
2019-01-22T23:44:50.214Z,69.80
2019-01-22T23:47:22.801Z,69.30
2019-01-22T23:49:55.268Z,69.20
2019-01-22T23:52:27.760Z,69.40
2019-01-22T23:55:00.288Z,69.70
2019-01-22T23:57:32.831Z,69.30
